Time;durP1;ratioP1;P1;durP2;ratioP2;P2;SDS_P1;SDS_P2;PMS_P1;PMS_P2;Temp;Humidity;BMP_temperature;BMP_pressure;BME280_temperature;BME280_humidity;BME280_pressure;Samples;Min_cycle;Max_cycle;Signal;HPM_P1;HPM_P2
2022/03/19 00:00:13;;;;;;;9.10;5.40;;;;;;;7.31;76.22;104415.50;5056035;28;20029;-35
2022/03/19 00:02:39;;;;;;;6.57;5.25;;;;;;;7.13;76.64;104404.38;5055891;28;20037;-35
2022/03/19 00:05:05;;;;;;;9.05;4.90;;;;;;;7.23;76.75;104412.56;5056393;28;20033;-35
2022/03/19 00:07:32;;;;;;;8.93;5.32;;;;;;;7.20;76.71;104412.81;5055817;28;20021;-35
2022/03/19 00:09:58;;;;;;;7.50;5.45;;;;;;;7.15;77.46;104412.31;5055826;28;20017;-35
2022/03/19 00:12:23;;;;;;;8.67;5.20;;;;;;;7.17;76.95;104415.72;5055755;28;20128;-35
2022/03/19 00:14:48;;;;;;;8.30;5.57;;;;;;;7.12;76.81;104413.41;5056195;28;20113;-35
2022/03/19 00:17:14;;;;;;;10.43;5.47;;;;;;;7.06;77.35;104400.44;5054921;28;20424;-35
2022/03/19 00:19:39;;;;;;;9.70;5.23;;;;;;;7.12;77.22;104417.94;5056137;28;20458;-35
2022/03/19 00:22:06;;;;;;;6.10;4.68;;;;;;;7.16;77.30;104408.63;5056317;28;20107;-35
2022/03/19 00:24:31;;;;;;;;;;;;;;;7.20;76.38;104413.66;5056225;28;20033;-35
2022/03/19 00:26:56;;;;;;;7.22;5.53;;;;;;;7.00;77.44;104406.31;5055537;28;20365;-35
2022/03/19 00:29:22;;;;;;;10.27;5.23;;;;;;;7.02;77.78;104411.56;5055767;28;20055;-35
2022/03/19 00:31:47;;;;;;;7.07;5.33;;;;;;;6.99;78.47;104403.75;5055729;28;20025;-35
2022/03/19 00:34:13;;;;;;;8.00;6.30;;;;;;;6.88;78.39;104405.44;5055897;28;20268;-35
2022/03/19 00:36:39;;;;;;;8.07;5.40;;;;;;;6.91;78.62;104407.88;5055589;28;20025;-35
2022/03/19 00:39:05;;;;;;;8.43;5.20;;;;;;;6.78;79.16;104409.78;5055567;28;20127;-35
2022/03/19 00:41:30;;;;;;;;;;;;;;;6.87;78.09;104413.59;5055961;28;20271;-35
2022/03/19 00:43:56;;;;;;;8.20;5.73;;;;;;;6.78;78.81;104409.78;5055412;28;20368;-35
2022/03/19 00:46:21;;;;;;;10.47;6.07;;;;;;;6.78;79.17;104412.47;5055748;28;20028;-35
2022/03/19 00:48:47;;;;;;;8.40;5.37;;;;;;;6.76;79.66;104406.38;5055147;28;20079;-35
2022/03/19 00:51:12;;;;;;;7.32;5.70;;;;;;;6.72;79.21;104400.38;5055108;28;20507;-35
2022/03/19 00:53:37;;;;;;;7.77;6.07;;;;;;;6.71;79.34;104397.81;5055645;28;20090;-35
2022/03/19 00:56:03;;;;;;;10.40;6.30;;;;;;;6.71;79.61;104395.13;5055036;28;20033;-35
2022/03/19 00:58:28;;;;;;;9.02;5.82;;;;;;;6.68;80.00;104398.88;5055630;28;20029;-35
2022/03/19 01:00:54;;;;;;;8.90;5.77;;;;;;;6.75;79.94;104398.44;5053159;28;20036;-35
2022/03/19 01:03:19;;;;;;;9.63;6.53;;;;;;;6.58;80.29;104386.28;5055337;28;20439;-35
2022/03/19 01:05:44;;;;;;;9.07;6.10;;;;;;;6.68;80.10;104403.41;5054883;28;20392;-35
2022/03/19 01:08:11;;;;;;;10.73;6.67;;;;;;;6.57;81.17;104393.50;5055104;28;20021;-35
2022/03/19 01:10:37;;;;;;;9.95;6.93;;;;;;;6.67;81.16;104409.78;5055307;28;20032;-35
2022/03/19 01:13:05;;;;;;;8.05;7.05;;;;;;;6.61;81.59;104403.03;5054873;28;20036;-35
2022/03/19 01:15:30;;;;;;;9.63;6.82;;;;;;;6.62;81.06;104401.22;5054313;28;20032;-35
2022/03/19 01:17:56;;;;;;;12.68;8.32;;;;;;;6.52;81.80;104403.75;5054808;28;20045;-35
2022/03/19 01:20:22;;;;;;;10.88;7.15;;;;;;;6.51;82.42;104402.03;5054646;28;20377;-35
2022/03/19 01:22:48;;;;;;;10.60;6.90;;;;;;;6.50;82.19;104404.84;5054235;28;20366;-35
2022/03/19 01:25:16;;;;;;;9.25;6.70;;;;;;;6.40;81.65;104388.56;5054095;28;20032;-35
2022/03/19 01:27:43;;;;;;;10.82;7.35;;;;;;;6.48;82.52;104401.41;5054045;28;20032;-35
2022/03/19 01:30:13;;;;;;;9.75;7.40;;;;;;;6.36;82.95;104392.47;5055131;28;20104;-35
2022/03/19 01:32:40;;;;;;;12.68;8.02;;;;;;;6.39;83.37;104403.84;5054281;28;20032;-35
2022/03/19 01:35:06;;;;;;;7.40;6.43;;;;;;;6.43;83.57;104404.44;5054295;28;20162;-35
2022/03/19 01:37:31;;;;;;;11.15;7.40;;;;;;;6.35;83.00;104391.59;5054212;28;20485;-35
2022/03/19 01:39:56;;;;;;;12.27;7.70;;;;;;;6.33;83.63;104396.22;5054150;28;20025;-35
2022/03/19 01:42:27;;;;;;;11.30;7.93;;;;;;;6.33;83.99;104398.91;5054053;28;20052;-34
2022/03/19 01:44:54;;;;;;;10.85;6.97;;;;;;;6.31;84.60;104403.56;5054546;28;20377;-35
2022/03/19 01:47:21;;;;;;;11.27;7.45;;;;;;;6.29;84.43;104396.56;5053925;28;20111;-35
2022/03/19 01:49:46;;;;;;;10.25;7.82;;;;;;;6.29;84.51;104397.41;5053736;28;20033;-35
2022/03/19 01:52:12;;;;;;;11.57;6.80;;;;;;;6.22;84.71;104376.50;5054326;28;20049;-35
2022/03/19 01:54:41;;;;;;;11.77;8.30;;;;;;;6.26;84.65;104391.44;5054608;28;20273;-35
2022/03/19 01:57:08;;;;;;;10.70;7.32;;;;;;;6.13;85.37;104386.97;5054255;28;20112;-35
2022/03/19 01:59:36;;;;;;;10.38;7.38;;;;;;;6.17;84.75;104385.78;5054820;28;20358;-35
2022/03/19 02:02:02;;;;;;;10.57;7.13;;;;;;;6.11;85.56;104385.41;5053913;28;20021;-35
2022/03/19 02:04:28;;;;;;;10.30;7.50;;;;;;;6.11;85.47;104383.56;5053864;28;20445;-35
2022/03/19 02:06:54;;;;;;;8.40;7.40;;;;;;;6.04;86.97;104382.28;5053610;28;20052;-35
2022/03/19 02:09:20;;;;;;;;;;;;;;;6.11;86.30;104385.41;5053727;28;20033;-35
2022/03/19 02:11:45;;;;;;;12.18;7.78;;;;;;;6.06;87.12;104384.88;5053380;28;20380;-35
2022/03/19 02:14:10;;;;;;;12.50;7.10;;;;;;;5.88;86.86;104358.38;5053836;28;20036;-35
2022/03/19 02:16:37;;;;;;;10.63;7.10;;;;;;;5.99;86.59;104384.47;5054322;28;20029;-35
2022/03/19 02:19:03;;;;;;;12.07;7.05;;;;;;;6.02;86.73;104368.13;5053426;28;20025;-35
2022/03/19 02:21:38;;;;;;;;;;;;;;;6.11;85.44;104372.81;5054062;28;20039;-35
2022/03/19 02:26:48;;;;;;;13.38;8.02;;;;;;;5.92;87.06;104369.78;5053320;28;20067;-35
2022/03/19 02:29:13;;;;;;;12.97;6.93;;;;;;;5.92;86.92;104367.09;5053071;28;20033;-35
2022/03/19 02:31:41;;;;;;;10.13;6.73;;;;;;;5.80;87.19;104344.66;5053084;28;20112;-35
2022/03/19 02:34:10;;;;;;;9.52;6.80;;;;;;;5.85;87.47;104353.22;5053439;28;20028;-35
2022/03/19 02:36:37;;;;;;;10.95;7.10;;;;;;;5.85;87.44;104357.72;5052906;28;20119;-35
2022/03/19 02:39:19;;;;;;;12.82;7.25;;;;;;;5.81;87.42;104356.28;5052501;28;20039;-35
2022/03/19 02:41:49;;;;;;;12.00;7.10;;;;;;;5.74;88.01;104337.06;5053716;28;20385;-35
2022/03/19 02:44:16;;;;;;;12.27;6.80;;;;;;;5.57;88.15;104332.94;5053300;28;20074;-34
2022/03/19 02:46:46;;;;;;;10.90;7.50;;;;;;;5.63;88.91;104353.97;5052869;28;20051;-35
2022/03/19 02:49:13;;;;;;;10.50;7.60;;;;;;;5.60;89.48;104350.63;5052989;28;20059;-34
2022/03/19 02:51:41;;;;;;;13.27;8.02;;;;;;;5.49;89.35;104350.56;5053004;28;20135;-34
2022/03/19 02:54:08;;;;;;;18.55;8.75;;;;;;;5.36;90.48;104335.34;5052922;28;20029;-34
2022/03/19 02:56:36;;;;;;;14.70;8.15;;;;;;;5.39;90.58;104342.34;5052709;28;20029;-34
2022/03/19 02:59:29;;;;;;;17.23;6.97;;;;;;;5.44;90.95;104353.59;5053998;28;20110;-34
2022/03/19 03:02:00;;;;;;;13.52;8.25;;;;;;;5.38;91.00;104357.59;5051703;28;20080;-34
2022/03/19 03:04:26;;;;;;;10.77;7.82;;;;;;;5.32;92.00;104352.66;5052558;28;20128;-34
2022/03/19 03:06:54;;;;;;;16.20;7.93;;;;;;;5.28;92.45;104344.94;5052663;28;20443;-34
2022/03/19 03:09:22;;;;;;;11.60;7.53;;;;;;;5.19;92.63;104327.69;5052722;28;20531;-34
2022/03/19 03:11:48;;;;;;;16.30;7.97;;;;;;;5.21;93.31;104333.78;5052813;28;20032;-34
2022/03/19 03:14:14;;;;;;;10.73;7.75;;;;;;;5.17;93.34;104324.22;5051951;28;20025;-35
2022/03/19 03:16:40;;;;;;;14.35;8.57;;;;;;;5.18;93.78;104330.47;5052803;28;20036;-35
2022/03/19 03:19:07;;;;;;;12.48;7.55;;;;;;;5.17;93.40;104337.63;5052748;28;20116;-34
2022/03/19 03:21:34;;;;;;;14.90;7.85;;;;;;;5.15;93.98;104326.19;5053538;28;20120;-34
2022/03/19 03:24:01;;;;;;;13.07;7.68;;;;;;;5.18;94.03;104338.53;5053039;28;20458;-34
2022/03/19 03:26:27;;;;;;;10.85;7.05;;;;;;;5.17;94.44;104326.91;5052629;28;20461;-34
2022/03/19 03:28:52;;;;;;;12.90;7.75;;;;;;;5.19;93.55;104325.00;5052370;28;20078;-34
2022/03/19 03:31:17;;;;;;;11.50;7.80;;;;;;;5.04;94.60;104307.31;5053280;28;20029;-34
2022/03/19 03:33:43;;;;;;;11.85;7.18;;;;;;;5.15;94.12;104324.34;5053115;28;20037;-34
2022/03/19 03:36:08;;;;;;;11.93;7.23;;;;;;;5.11;93.86;104314.78;5052382;28;20040;-34
2022/03/19 03:38:34;;;;;;;13.77;6.60;;;;;;;5.05;93.25;104303.66;5051698;28;20274;-34
2022/03/19 03:40:59;;;;;;;16.00;7.23;;;;;;;5.19;94.02;104330.34;5052396;28;20112;-35
2022/03/19 03:43:25;;;;;;;12.35;7.07;;;;;;;5.20;93.64;104329.38;5052508;28;20029;-35
2022/03/19 03:45:50;;;;;;;15.10;6.70;;;;;;;5.22;93.22;104326.59;5053083;28;20032;-35
2022/03/19 03:48:16;;;;;;;11.52;7.32;;;;;;;5.21;94.23;104332.91;5052497;28;20021;-35
2022/03/19 03:50:42;;;;;;;11.73;7.35;;;;;;;5.20;93.74;104329.38;5053321;28;20045;-35
2022/03/19 03:53:08;;;;;;;14.20;7.07;;;;;;;5.23;94.02;104325.63;5056169;28;20040;-35
2022/03/19 03:55:36;;;;;;;12.75;6.13;;;;;;;5.21;93.93;104328.41;5056687;28;20040;-35
2022/03/19 03:58:03;;;;;;;12.60;7.85;;;;;;;5.14;95.02;104313.72;5056092;28;20427;-35
2022/03/19 04:00:30;;;;;;;13.35;6.95;;;;;;;5.14;93.60;104319.97;5056016;28;20048;-34
2022/03/19 04:02:55;;;;;;;;;;;;;;;5.22;92.97;104327.47;5056741;28;20044;-34
2022/03/19 04:05:20;;;;;;;14.00;6.85;;;;;;;5.10;93.25;104309.56;5056197;28;20439;-34
2022/03/19 04:07:46;;;;;;;10.30;6.83;;;;;;;5.19;93.22;104308.91;5056191;28;20025;-34
2022/03/19 04:10:11;;;;;;;13.03;6.97;;;;;;;5.10;93.67;104314.91;5055707;28;20108;-34
2022/03/19 04:12:37;;;;;;;12.30;7.75;;;;;;;5.11;94.59;104311.25;5055832;28;20108;-34
2022/03/19 04:15:04;;;;;;;12.00;7.27;;;;;;;5.12;94.20;104302.25;5055912;28;20039;-34
2022/03/19 04:17:29;;;;;;;14.43;7.25;;;;;;;5.01;95.12;104299.47;5055338;28;20477;-34
2022/03/19 04:19:55;;;;;;;14.90;8.40;;;;;;;5.11;95.35;104311.25;5055520;28;20078;-34
2022/03/19 04:22:20;;;;;;;13.40;7.57;;;;;;;5.09;94.87;104313.22;5055326;28;20039;-34
2022/03/19 04:24:46;;;;;;;13.37;8.07;;;;;;;5.12;95.10;104307.59;5055884;28;20136;-34
2022/03/19 04:27:12;;;;;;;;;;;;;;;5.16;93.98;104314.47;5056258;28;20029;-34
2022/03/19 04:29:37;;;;;;;13.73;7.18;;;;;;;5.18;95.11;104312.56;5055737;28;20241;-34
2022/03/19 04:32:03;;;;;;;10.77;7.37;;;;;;;5.15;94.49;104308.25;5056224;28;20025;-34
2022/03/19 04:34:28;;;;;;;10.50;7.85;;;;;;;5.16;94.44;104309.97;5055660;28;20044;-34
2022/03/19 04:36:54;;;;;;;12.27;7.20;;;;;;;5.14;94.65;104300.31;5055990;28;20033;-34
2022/03/19 04:39:19;;;;;;;9.80;6.63;;;;;;;5.20;94.50;104301.69;5054525;28;20469;-34
2022/03/19 04:41:44;;;;;;;11.20;7.20;;;;;;;5.22;94.44;104306.00;5055658;28;20473;-35
2022/03/19 04:44:10;;;;;;;11.97;7.00;;;;;;;5.14;94.28;104289.59;5055113;28;20083;-35
2022/03/19 04:46:36;;;;;;;12.17;8.20;;;;;;;5.03;94.41;104274.28;5055228;28;20033;-34
2022/03/19 04:49:02;;;;;;;13.05;7.72;;;;;;;5.18;94.42;104292.91;5055381;28;20303;-34
2022/03/19 04:51:33;;;;;;;15.63;8.55;;;;;;;5.13;94.82;104290.56;5054891;28;20045;-34
2022/03/19 04:53:59;;;;;;;12.57;7.30;;;;;;;5.18;93.98;104296.44;5055576;28;20382;-34
2022/03/19 04:56:27;;;;;;;13.13;8.02;;;;;;;5.15;94.39;104300.19;5054771;28;20064;-35
2022/03/19 04:58:54;;;;;;;11.25;7.32;;;;;;;5.11;94.20;104287.13;5055190;28;20036;-35
2022/03/19 05:01:20;;;;;;;16.35;8.70;;;;;;;5.12;94.10;104302.25;5054314;28;20032;-35
2022/03/19 05:03:45;;;;;;;12.63;7.50;;;;;;;5.05;94.97;104299.16;5054847;28;20024;-34
2022/03/19 05:06:10;;;;;;;13.97;7.07;;;;;;;5.06;94.20;104297.31;5055395;28;20142;-35
2022/03/19 05:08:36;;;;;;;16.77;7.33;;;;;;;5.05;94.29;104295.63;5055566;28;20028;-35
2022/03/19 05:11:13;;;;;;;13.77;8.27;;;;;;;4.97;94.85;104297.97;5055012;28;20032;-35
2022/03/19 05:13:45;;;;;;;15.40;8.18;;;;;;;5.02;95.29;104301.19;5055144;28;20035;-35
2022/03/19 05:16:14;;;;;;;12.30;7.30;;;;;;;5.04;94.49;104308.16;5054838;28;20025;-35
2022/03/19 05:18:40;;;;;;;13.88;7.80;;;;;;;4.99;94.15;104312.16;5054352;28;20469;-35
2022/03/19 05:21:05;;;;;;;12.80;7.20;;;;;;;5.03;94.82;104300.25;5054772;28;20039;-35
2022/03/19 05:23:31;;;;;;;9.33;6.97;;;;;;;4.79;94.61;104273.34;5054453;28;20287;-35
2022/03/19 05:25:58;;;;;;;13.10;7.60;;;;;;;4.82;93.90;104279.31;5054743;28;20017;-34
2022/03/19 05:28:24;;;;;;;17.95;7.55;;;;;;;4.97;94.34;104314.06;5054376;28;20025;-35
2022/03/19 05:30:50;;;;;;;14.75;8.18;;;;;;;4.93;94.07;104304.53;5054364;28;20058;-34
2022/03/19 05:33:16;;;;;;;;;;;;;;;4.94;93.95;104307.13;5054897;28;20473;-34
2022/03/19 05:35:42;;;;;;;12.95;7.95;;;;;;;4.85;95.41;104311.31;5055288;28;19908;-35
2022/03/19 05:38:08;;;;;;;11.77;8.00;;;;;;;4.76;95.61;104300.38;5054150;28;20151;-34
2022/03/19 05:40:34;;;;;;;11.45;7.78;;;;;;;4.80;95.65;104305.41;5054746;28;20139;-34
2022/03/19 05:42:59;;;;;;;12.82;7.72;;;;;;;4.80;95.47;104313.44;5054154;28;20036;-35
2022/03/19 05:45:25;;;;;;;15.37;8.63;;;;;;;4.81;95.17;104317.00;5054297;28;20036;-35
2022/03/19 05:47:50;;;;;;;12.10;8.07;;;;;;;4.75;95.09;104304.03;5054223;28;20032;-35
2022/03/19 05:50:16;;;;;;;14.70;8.57;;;;;;;4.69;95.70;104317.88;5054238;28;20086;-35
2022/03/19 05:52:44;;;;;;;11.60;7.63;;;;;;;4.71;95.73;104313.25;5054158;28;20663;-35
2022/03/19 05:55:11;;;;;;;14.75;7.65;;;;;;;4.71;95.03;104307.88;5053985;28;20021;-35
2022/03/19 05:57:36;;;;;;;10.38;7.38;;;;;;;4.71;95.18;104313.25;5054127;28;20058;-35
2022/03/19 06:00:03;;;;;;;15.53;7.80;;;;;;;4.72;95.06;104320.31;5054099;28;20033;-35
2022/03/19 06:02:28;;;;;;;13.13;7.82;;;;;;;4.72;95.66;104315.81;5053462;28;20485;-34
2022/03/19 06:04:53;;;;;;;14.57;8.37;;;;;;;4.70;96.41;104327.63;5054006;28;20032;-35
2022/03/19 06:07:19;;;;;;;11.90;8.40;;;;;;;4.71;95.94;104330.19;5053652;28;20087;-35
2022/03/19 06:09:44;;;;;;;12.80;8.18;;;;;;;4.77;95.40;104326.22;5053613;28;20131;-34
2022/03/19 06:12:10;;;;;;;11.77;8.20;;;;;;;4.81;95.63;104333.94;5053342;28;20029;-35
2022/03/19 06:14:36;;;;;;;15.60;8.85;;;;;;;4.77;95.28;104324.38;5052441;28;20032;-35
2022/03/19 06:17:01;;;;;;;13.20;8.05;;;;;;;4.68;95.52;104316.97;5053449;28;20135;-35
2022/03/19 06:19:26;;;;;;;13.87;8.83;;;;;;;4.75;95.42;104320.97;5054309;28;20446;-35
2022/03/19 06:21:52;;;;;;;10.73;7.47;;;;;;;4.84;95.63;104323.00;5053110;28;20051;-35
2022/03/19 06:24:18;;;;;;;17.63;9.20;;;;;;;4.87;95.49;104324.59;5054077;28;20033;-35
2022/03/19 06:26:43;;;;;;;12.00;8.00;;;;;;;4.94;95.02;104331.25;5053875;28;20040;-35
2022/03/19 06:29:09;;;;;;;11.53;7.60;;;;;;;4.98;94.46;104324.72;5053090;28;20440;-35
2022/03/19 06:31:34;;;;;;;11.23;7.55;;;;;;;4.95;94.34;104313.34;5053272;28;20090;-35
2022/03/19 06:34:00;;;;;;;11.13;7.70;;;;;;;5.01;94.48;104337.03;5053222;28;20096;-35
2022/03/19 06:39:11;;;;;;;13.13;8.10;;;;;;;4.96;94.61;104333.81;5053702;28;20163;-35
2022/03/19 06:41:36;;;;;;;14.90;8.70;;;;;;;4.90;94.58;104319.03;5053667;28;20032;-35
2022/03/19 06:44:02;;;;;;;16.63;7.93;;;;;;;5.06;94.81;104329.50;5053454;28;20036;-35
2022/03/19 06:46:27;;;;;;;13.38;7.50;;;;;;;5.07;95.01;104334.75;5053390;28;20036;-35
2022/03/19 06:48:53;;;;;;;11.37;7.57;;;;;;;5.11;94.74;104325.53;5051797;28;20465;-35
2022/03/19 06:51:19;;;;;;;13.50;8.10;;;;;;;5.19;94.12;104329.50;5053408;28;20033;-35
2022/03/19 06:53:45;;;;;;;;;;;;;;;5.29;94.44;104327.88;5053471;28;20029;-35
2022/03/19 06:56:10;;;;;;;12.27;7.45;;;;;;;5.31;93.42;104332.13;5053009;28;20408;-35
2022/03/19 06:58:36;;;;;;;13.33;8.00;;;;;;;5.26;93.91;104301.25;5053127;28;20029;-35
2022/03/19 07:01:02;;;;;;;17.90;8.10;;;;;;;5.45;94.26;104324.91;5053643;28;20309;-35
2022/03/19 07:03:28;;;;;;;;;;;;;;;5.55;93.79;104328.63;5052969;28;20531;-35
2022/03/19 07:05:54;;;;;;;11.18;7.50;;;;;;;5.58;93.50;104312.31;5051452;28;20360;-35
2022/03/19 07:08:19;;;;;;;17.63;8.37;;;;;;;5.75;93.02;104322.66;5051259;28;20083;-35
2022/03/19 07:10:44;;;;;;;11.60;6.93;;;;;;;5.85;92.87;104317.44;5053409;28;20044;-35
2022/03/19 07:13:10;;;;;;;13.37;7.53;;;;;;;5.97;92.13;104324.63;5053077;28;20029;-35
2022/03/19 07:15:36;;;;;;;11.00;7.10;;;;;;;6.11;90.99;104316.38;5053059;28;20039;-35
2022/03/19 07:18:02;;;;;;;;;;;;;;;6.20;90.43;104314.84;5053234;28;20036;-35
2022/03/19 07:20:28;;;;;;;13.02;6.75;;;;;;;6.32;90.53;104318.41;5052677;28;20361;-35
2022/03/19 07:22:58;;;;;;;12.45;7.07;;;;;;;6.39;89.86;104317.81;5052624;28;20029;-35
2022/03/19 07:25:26;;;;;;;13.20;6.95;;;;;;;6.52;89.64;104319.53;5054683;28;20032;-35
2022/03/19 07:27:54;;;;;;;10.23;6.75;;;;;;;6.63;88.99;104324.91;5056472;28;20070;-35
2022/03/19 07:30:20;;;;;;;12.52;7.00;;;;;;;6.71;88.98;104320.66;5057314;28;20370;-35
2022/03/19 07:32:46;;;;;;;10.70;6.13;;;;;;;6.85;89.39;104324.97;5056406;28;20033;-35
2022/03/19 07:35:15;;;;;;;13.43;6.68;;;;;;;6.96;87.87;104316.03;5056969;28;20043;-35
2022/03/19 07:37:41;;;;;;;10.32;6.03;;;;;;;7.02;87.24;104314.69;5057137;28;20033;-35
2022/03/19 07:43:11;;;;;;;12.52;5.82;;;;;;;7.14;86.53;104294.88;5056638;28;20044;-35
2022/03/19 07:45:37;;;;;;;10.05;6.22;;;;;;;7.25;85.16;104308.31;5056051;28;20396;-35
2022/03/19 07:48:03;;;;;;;11.48;5.82;;;;;;;7.37;84.53;104310.00;5056225;28;20078;-36
2022/03/19 07:50:28;;;;;;;9.05;5.88;;;;;;;7.38;84.85;104311.72;5056114;28;20028;-35
2022/03/19 07:52:55;;;;;;;14.45;6.00;;;;;;;7.38;83.80;104300.09;5056401;28;20056;-35
2022/03/19 07:55:21;;;;;;;11.15;6.38;;;;;;;7.46;84.00;104308.38;5055775;28;20458;-35
2022/03/19 07:57:46;;;;;;;13.43;6.25;;;;;;;7.57;84.07;104296.75;5056467;28;20021;-35
2022/03/19 08:00:12;;;;;;;11.67;5.27;;;;;;;7.53;81.81;104292.59;5056165;28;20060;-35
2022/03/19 08:02:39;;;;;;;10.90;5.03;;;;;;;7.65;82.66;104296.94;5056108;28;20474;-35
2022/03/19 08:05:06;;;;;;;10.60;5.55;;;;;;;7.73;82.37;104298.03;5056088;28;20071;-35
2022/03/19 08:07:31;;;;;;;12.82;5.80;;;;;;;7.76;81.28;104278.06;5055759;28;20024;-35
2022/03/19 08:09:56;;;;;;;10.97;5.30;;;;;;;7.92;81.74;104291.09;5061027;28;20102;-34
2022/03/19 08:12:22;;;;;;;12.10;5.67;;;;;;;8.05;81.06;104299.84;5056113;28;20367;-35
2022/03/19 08:14:49;;;;;;;9.57;5.27;;;;;;;8.04;78.57;104294.59;5055624;28;20036;-35
2022/03/19 08:17:15;;;;;;;10.30;5.57;;;;;;;8.08;79.18;104298.72;5053792;28;20298;-35
2022/03/19 08:19:42;;;;;;;9.48;4.95;;;;;;;8.21;79.63;104297.56;5055249;28;20033;-35
2022/03/19 08:22:08;;;;;;;9.20;4.85;;;;;;;8.26;77.79;104302.56;5055494;28;20040;-35
2022/03/19 08:24:34;;;;;;;7.43;4.03;;;;;;;8.14;76.85;104292.81;5055283;28;20032;-35
2022/03/19 08:27:00;;;;;;;8.68;4.63;;;;;;;8.09;77.16;104306.69;5055328;28;20033;-35
2022/03/19 08:29:25;;;;;;;7.55;4.75;;;;;;;8.10;76.21;104310.22;5054695;28;20441;-35
2022/03/19 08:31:51;;;;;;;10.97;4.83;;;;;;;8.14;76.68;104296.34;5055541;28;20044;-35
2022/03/19 08:34:17;;;;;;;7.68;4.35;;;;;;;8.26;75.89;104313.34;5055354;28;20033;-35
2022/03/19 08:36:42;;;;;;;11.20;4.75;;;;;;;8.31;76.02;104305.72;5053394;28;20123;-35
2022/03/19 08:41:51;;;;;;;8.23;4.38;;;;;;;8.29;74.54;104296.88;5055655;28;20098;-35
2022/03/19 08:44:17;;;;;;;10.40;4.63;;;;;;;8.44;76.11;104314.50;5053487;28;20021;-35
2022/03/19 08:46:42;;;;;;;7.97;3.93;;;;;;;8.43;74.68;104293.88;5055234;28;20033;-35
2022/03/19 08:49:08;;;;;;;11.23;4.88;;;;;;;8.59;73.55;104303.34;5054582;28;20473;-35
2022/03/19 08:51:42;;;;;;;10.57;4.50;;;;;;;8.59;73.03;104300.66;5054361;28;20057;-35
2022/03/19 08:54:10;;;;;;;8.77;4.40;;;;;;;8.60;73.51;104288.91;5054847;28;20044;-35
2022/03/19 08:56:36;;;;;;;8.10;3.95;;;;;;;8.73;74.09;104295.75;5054595;28;20404;-35
2022/03/19 08:59:02;;;;;;;10.27;3.78;;;;;;;8.88;73.25;104301.69;5054243;28;20029;-35
2022/03/19 09:01:27;;;;;;;11.15;4.22;;;;;;;8.85;72.67;104276.78;5054910;28;20450;-35
2022/03/19 09:03:53;;;;;;;7.50;4.23;;;;;;;8.97;72.20;104291.88;5054024;28;20135;-35
2022/03/19 09:06:19;;;;;;;8.95;4.10;;;;;;;9.01;71.40;104301.41;5054730;28;20488;-35
2022/03/19 09:08:46;;;;;;;10.82;4.88;;;;;;;8.96;71.67;104272.13;5054646;28;20491;-35
2022/03/19 09:11:12;;;;;;;8.82;4.38;;;;;;;9.21;71.16;104288.84;5054647;28;20140;-35
2022/03/19 09:13:38;;;;;;;11.43;4.28;;;;;;;9.32;71.06;104279.75;5054211;28;20485;-35
2022/03/19 09:16:05;;;;;;;10.07;4.55;;;;;;;9.19;70.50;104274.63;5054567;28;20469;-35
2022/03/19 09:18:30;;;;;;;9.02;4.32;;;;;;;9.35;69.71;104280.34;5054340;28;20063;-34
2022/03/19 09:20:57;;;;;;;9.38;4.47;;;;;;;9.45;70.51;104274.97;5054464;28;20025;-35
2022/03/19 09:23:23;;;;;;;11.25;3.83;;;;;;;9.50;68.44;104273.53;5054635;28;20108;-35
2022/03/19 09:25:48;;;;;;;9.70;4.50;;;;;;;9.33;68.65;104279.63;5055068;28;20131;-35
2022/03/19 09:28:13;;;;;;;10.30;4.37;;;;;;;9.45;67.76;104286.63;5054069;28;20075;-35
2022/03/19 09:30:39;;;;;;;8.23;3.53;;;;;;;9.63;68.62;104284.09;5053443;28;20535;-35
2022/03/19 09:33:04;;;;;;;9.37;4.33;;;;;;;9.62;67.43;104287.78;5054195;28;20367;-35
2022/03/19 09:35:29;;;;;;;10.20;3.83;;;;;;;9.57;67.67;104275.69;5053273;28;20402;-35
2022/03/19 09:37:55;;;;;;;7.30;3.57;;;;;;;9.67;67.75;104263.91;5054277;28;20151;-35
2022/03/19 09:40:21;;;;;;;9.13;3.90;;;;;;;9.70;66.60;104274.41;5053853;28;20260;-35
2022/03/19 09:42:48;;;;;;;8.73;4.00;;;;;;;9.74;66.96;104265.03;5053928;28;20021;-35
2022/03/19 09:45:13;;;;;;;8.48;4.10;;;;;;;9.85;66.11;104255.91;5053442;28;20519;-35
2022/03/19 09:47:38;;;;;;;8.50;3.47;;;;;;;10.09;65.54;104257.31;5053734;28;20120;-35
2022/03/19 09:50:04;;;;;;;8.20;3.43;;;;;;;10.21;64.43;104256.16;5054096;28;20413;-35
2022/03/19 09:52:35;;;;;;;7.15;3.22;;;;;;;10.22;62.83;104252.47;5054310;28;20091;-35
2022/03/19 09:55:01;;;;;;;13.48;4.10;;;;;;;10.09;61.50;104241.09;5053677;28;20084;-35
2022/03/19 09:57:27;;;;;;;11.20;3.83;;;;;;;10.24;61.64;104242.38;5053582;28;20029;-35
2022/03/19 09:59:52;;;;;;;8.53;3.63;;;;;;;10.24;60.44;104255.88;5053990;28;20025;-35
2022/03/19 10:02:18;;;;;;;10.30;3.85;;;;;;;10.34;60.66;104251.31;5035238;28;20048;-35
2022/03/19 10:04:44;;;;;;;;;;;;;;;10.53;61.49;104245.84;5053967;28;20041;-35
2022/03/19 10:09:56;;;;;;;6.68;3.47;;;;;;;10.64;59.14;104235.81;5053556;28;20281;-35
2022/03/19 10:12:30;;;;;;;8.38;3.42;;;;;;;10.56;57.86;104223.91;5053439;28;20068;-35
2022/03/19 10:14:57;;;;;;;7.05;3.10;;;;;;;10.67;56.96;104212.03;5053761;28;20094;-42
2022/03/19 10:17:34;;;;;;;6.80;3.20;;;;;;;10.93;57.16;104214.03;5053915;28;20079;-35
2022/03/19 10:20:04;;;;;;;7.15;3.05;;;;;;;10.89;55.42;104201.81;5053013;28;20031;-35
2022/03/19 10:22:30;;;;;;;7.13;3.00;;;;;;;10.90;54.14;104198.94;5053254;28;20438;-35
2022/03/19 10:25:04;;;;;;;4.93;2.67;;;;;;;10.99;52.62;104214.28;5052920;28;20028;-35
2022/03/19 10:27:34;;;;;;;9.30;3.35;;;;;;;10.76;52.76;104199.44;5053432;28;20035;-35
2022/03/19 10:30:07;;;;;;;9.35;3.20;;;;;;;10.99;52.30;104198.03;5053159;28;20485;-35
2022/03/19 10:32:32;;;;;;;6.63;2.63;;;;;;;11.11;52.14;104197.81;5052810;28;20551;-34
2022/03/19 10:34:58;;;;;;;9.02;3.03;;;;;;;11.23;51.75;104196.59;5052841;28;20025;-34
2022/03/19 10:37:34;;;;;;;5.57;2.67;;;;;;;11.31;51.56;104194.81;5053542;28;20028;-34
2022/03/19 10:40:00;;;;;;;;;;;;;;;11.40;49.92;104189.47;5052611;28;20036;-34
2022/03/19 10:42:25;;;;;;;6.32;2.92;;;;;;;11.25;49.11;104186.44;5052902;28;20292;-34
2022/03/19 10:44:52;;;;;;;9.33;3.03;;;;;;;11.18;49.02;104182.66;5053299;28;20078;-34
2022/03/19 10:47:22;;;;;;;4.97;2.42;;;;;;;11.30;49.15;104176.00;5053241;28;20028;-34
2022/03/19 10:49:47;;;;;;;5.30;2.72;;;;;;;11.45;48.13;104160.91;5052870;28;20037;-34
2022/03/19 10:52:16;;;;;;;7.30;3.07;;;;;;;11.61;48.93;104160.16;5052953;28;20048;-34
2022/03/19 10:54:43;;;;;;;7.80;3.08;;;;;;;11.64;48.12;104156.31;5053184;28;20041;-34
2022/03/19 10:57:09;;;;;;;5.25;2.65;;;;;;;11.92;49.71;104154.34;5052862;28;20029;-34
2022/03/19 10:59:34;;;;;;;9.07;3.00;;;;;;;11.79;47.49;104152.00;5052176;28;20029;-35
2022/03/19 11:02:00;;;;;;;5.60;2.83;;;;;;;11.78;46.75;104142.19;5052454;28;20740;-35
2022/03/19 11:04:27;;;;;;;5.50;2.40;;;;;;;11.82;43.79;104146.31;5053270;28;20032;-35
2022/03/19 11:06:54;;;;;;;7.75;2.42;;;;;;;11.97;43.06;104142.00;5052657;28;20513;-35
2022/03/19 11:09:26;;;;;;;3.75;2.10;;;;;;;12.16;42.69;104137.38;5051134;28;20025;-35
2022/03/19 11:11:59;;;;;;;4.88;2.38;;;;;;;12.03;39.66;104127.78;5053295;28;20025;-35
2022/03/19 11:14:27;;;;;;;3.88;1.85;;;;;;;12.14;38.79;104118.53;5052667;28;20485;-35
2022/03/19 11:19:48;;;;;;;5.30;2.45;;;;;;;12.17;39.21;104120.94;5053118;28;20043;-35
2022/03/19 11:22:14;;;;;;;6.07;2.50;;;;;;;12.39;39.16;104116.75;5052896;28;20025;-35
2022/03/19 11:25:06;;;;;;;6.10;2.10;;;;;;;12.32;39.12;104105.72;5053097;28;20021;-35
2022/03/19 11:27:36;;;;;;;4.72;2.05;;;;;;;12.33;38.69;104091.13;5052505;28;20275;-35
2022/03/19 11:30:04;;;;;;;4.15;2.00;;;;;;;12.45;37.11;104109.84;5053106;28;20099;-35
2022/03/19 11:32:30;;;;;;;6.10;2.05;;;;;;;12.35;36.00;104104.56;5052486;28;20459;-35
2022/03/19 11:34:59;;;;;;;6.38;1.98;;;;;;;12.46;36.27;104095.28;5052705;28;20068;-35
2022/03/19 11:38:05;;;;;;;3.97;1.90;;;;;;;12.49;36.11;104089.50;5052452;28;20024;-35
2022/03/19 11:40:35;;;;;;;4.78;1.92;;;;;;;12.45;34.58;104089.00;5049750;28;20041;-35
2022/03/19 11:43:01;;;;;;;5.57;1.88;;;;;;;12.62;34.43;104084.44;5049940;28;20029;-35